sensor_id;sensor_type;location;lat;lon;timestamp;P1;durP1;ratioP1;P2;durP2;ratioP2
16346;SDS011;8283;48.504;13.734;2023-12-20T00:01:04;2.80;;;1.85;;
16346;SDS011;8283;48.504;13.734;2023-12-20T00:03:24;3.47;;;2.08;;
16346;SDS011;8283;48.504;13.734;2023-12-20T00:05:43;2.78;;;2.20;;
16346;SDS011;8283;48.504;13.734;2023-12-20T00:08:02;3.70;;;2.42;;
16346;SDS011;8283;48.504;13.734;2023-12-20T00:12:42;3.25;;;2.10;;
16346;SDS011;8283;48.504;13.734;2023-12-20T00:15:02;4.65;;;2.78;;
16346;SDS011;8283;48.504;13.734;2023-12-20T00:17:21;3.78;;;2.33;;
16346;SDS011;8283;48.504;13.734;2023-12-20T00:19:41;4.07;;;2.55;;
16346;SDS011;8283;48.504;13.734;2023-12-20T00:22:00;4.13;;;3.00;;
16346;SDS011;8283;48.504;13.734;2023-12-20T00:24:20;2.97;;;2.13;;
16346;SDS011;8283;48.504;13.734;2023-12-20T00:26:39;4.03;;;2.60;;
16346;SDS011;8283;48.504;13.734;2023-12-20T00:28:59;2.92;;;2.22;;
16346;SDS011;8283;48.504;13.734;2023-12-20T00:31:18;3.92;;;3.00;;
16346;SDS011;8283;48.504;13.734;2023-12-20T00:33:38;4.53;;;2.58;;
16346;SDS011;8283;48.504;13.734;2023-12-20T00:35:58;2.97;;;2.38;;
16346;SDS011;8283;48.504;13.734;2023-12-20T00:38:17;3.22;;;2.20;;
16346;SDS011;8283;48.504;13.734;2023-12-20T00:40:36;3.85;;;2.47;;
16346;SDS011;8283;48.504;13.734;2023-12-20T00:42:56;3.95;;;2.42;;
16346;SDS011;8283;48.504;13.734;2023-12-20T00:45:15;3.63;;;2.35;;
16346;SDS011;8283;48.504;13.734;2023-12-20T00:47:35;6.18;;;2.40;;
16346;SDS011;8283;48.504;13.734;2023-12-20T00:49:54;4.88;;;2.80;;
16346;SDS011;8283;48.504;13.734;2023-12-20T00:52:13;4.13;;;3.17;;
16346;SDS011;8283;48.504;13.734;2023-12-20T00:54:34;4.47;;;2.67;;
16346;SDS011;8283;48.504;13.734;2023-12-20T00:56:53;3.10;;;2.28;;
16346;SDS011;8283;48.504;13.734;2023-12-20T00:59:13;3.10;;;2.30;;
16346;SDS011;8283;48.504;13.734;2023-12-20T01:01:33;3.78;;;2.83;;
16346;SDS011;8283;48.504;13.734;2023-12-20T01:03:53;3.97;;;2.72;;
16346;SDS011;8283;48.504;13.734;2023-12-20T01:06:12;3.30;;;2.50;;
16346;SDS011;8283;48.504;13.734;2023-12-20T01:08:31;3.17;;;2.13;;
16346;SDS011;8283;48.504;13.734;2023-12-20T01:10:50;3.75;;;2.42;;
16346;SDS011;8283;48.504;13.734;2023-12-20T01:13:10;3.70;;;2.70;;
16346;SDS011;8283;48.504;13.734;2023-12-20T01:15:30;3.85;;;2.55;;
16346;SDS011;8283;48.504;13.734;2023-12-20T01:17:49;3.22;;;2.15;;
16346;SDS011;8283;48.504;13.734;2023-12-20T01:20:09;4.47;;;2.70;;
16346;SDS011;8283;48.504;13.734;2023-12-20T01:22:29;3.85;;;2.60;;
16346;SDS011;8283;48.504;13.734;2023-12-20T01:24:48;4.22;;;3.08;;
16346;SDS011;8283;48.504;13.734;2023-12-20T01:27:07;4.50;;;2.75;;
16346;SDS011;8283;48.504;13.734;2023-12-20T01:29:27;3.78;;;2.40;;
16346;SDS011;8283;48.504;13.734;2023-12-20T01:31:46;5.07;;;3.15;;
16346;SDS011;8283;48.504;13.734;2023-12-20T01:34:06;5.00;;;3.03;;
16346;SDS011;8283;48.504;13.734;2023-12-20T01:36:26;4.80;;;3.15;;
16346;SDS011;8283;48.504;13.734;2023-12-20T01:38:45;4.32;;;2.90;;
16346;SDS011;8283;48.504;13.734;2023-12-20T01:41:05;3.90;;;2.65;;
16346;SDS011;8283;48.504;13.734;2023-12-20T01:43:24;4.57;;;2.92;;
16346;SDS011;8283;48.504;13.734;2023-12-20T01:45:43;4.38;;;2.53;;
16346;SDS011;8283;48.504;13.734;2023-12-20T01:48:03;4.47;;;2.65;;
16346;SDS011;8283;48.504;13.734;2023-12-20T01:52:44;3.17;;;2.25;;
16346;SDS011;8283;48.504;13.734;2023-12-20T01:55:04;3.63;;;2.50;;
16346;SDS011;8283;48.504;13.734;2023-12-20T01:57:31;4.50;;;2.70;;
16346;SDS011;8283;48.504;13.734;2023-12-20T01:59:51;4.93;;;3.00;;
16346;SDS011;8283;48.504;13.734;2023-12-20T02:02:10;4.45;;;3.22;;
16346;SDS011;8283;48.504;13.734;2023-12-20T02:04:31;3.55;;;2.83;;
16346;SDS011;8283;48.504;13.734;2023-12-20T02:06:52;4.65;;;3.20;;
16346;SDS011;8283;48.504;13.734;2023-12-20T02:11:31;4.63;;;2.47;;
16346;SDS011;8283;48.504;13.734;2023-12-20T02:13:51;4.30;;;3.08;;
16346;SDS011;8283;48.504;13.734;2023-12-20T02:16:11;4.43;;;2.53;;
16346;SDS011;8283;48.504;13.734;2023-12-20T02:18:31;3.95;;;3.13;;
16346;SDS011;8283;48.504;13.734;2023-12-20T02:20:51;5.15;;;3.10;;
16346;SDS011;8283;48.504;13.734;2023-12-20T02:23:11;5.13;;;2.53;;
16346;SDS011;8283;48.504;13.734;2023-12-20T02:25:30;4.75;;;3.25;;
16346;SDS011;8283;48.504;13.734;2023-12-20T02:27:49;4.68;;;3.13;;
16346;SDS011;8283;48.504;13.734;2023-12-20T02:30:09;4.68;;;3.33;;
16346;SDS011;8283;48.504;13.734;2023-12-20T02:32:29;6.13;;;3.67;;
16346;SDS011;8283;48.504;13.734;2023-12-20T02:34:49;4.97;;;3.35;;
16346;SDS011;8283;48.504;13.734;2023-12-20T02:37:08;4.32;;;2.83;;
16346;SDS011;8283;48.504;13.734;2023-12-20T02:39:27;4.18;;;2.78;;
16346;SDS011;8283;48.504;13.734;2023-12-20T02:41:46;4.53;;;3.13;;
16346;SDS011;8283;48.504;13.734;2023-12-20T02:44:06;3.30;;;2.70;;
16346;SDS011;8283;48.504;13.734;2023-12-20T02:46:25;3.90;;;2.97;;
16346;SDS011;8283;48.504;13.734;2023-12-20T02:48:45;4.15;;;3.20;;
16346;SDS011;8283;48.504;13.734;2023-12-20T02:51:05;4.80;;;3.10;;
16346;SDS011;8283;48.504;13.734;2023-12-20T02:53:24;4.55;;;2.97;;
16346;SDS011;8283;48.504;13.734;2023-12-20T02:55:43;4.25;;;3.05;;
16346;SDS011;8283;48.504;13.734;2023-12-20T02:58:03;4.70;;;2.92;;
16346;SDS011;8283;48.504;13.734;2023-12-20T03:00:22;5.18;;;3.22;;
16346;SDS011;8283;48.504;13.734;2023-12-20T03:02:41;3.58;;;3.00;;
16346;SDS011;8283;48.504;13.734;2023-12-20T03:05:01;3.83;;;2.83;;
16346;SDS011;8283;48.504;13.734;2023-12-20T03:07:21;3.90;;;3.30;;
16346;SDS011;8283;48.504;13.734;2023-12-20T03:09:40;3.72;;;3.15;;
16346;SDS011;8283;48.504;13.734;2023-12-20T03:11:59;4.68;;;3.08;;
16346;SDS011;8283;48.504;13.734;2023-12-20T03:14:18;3.72;;;2.85;;
16346;SDS011;8283;48.504;13.734;2023-12-20T03:16:37;4.25;;;3.30;;
16346;SDS011;8283;48.504;13.734;2023-12-20T03:18:56;4.30;;;3.20;;
16346;SDS011;8283;48.504;13.734;2023-12-20T03:21:16;3.45;;;2.80;;
16346;SDS011;8283;48.504;13.734;2023-12-20T03:23:35;4.68;;;3.42;;
16346;SDS011;8283;48.504;13.734;2023-12-20T03:25:54;4.35;;;3.30;;
16346;SDS011;8283;48.504;13.734;2023-12-20T03:28:14;5.30;;;3.20;;
16346;SDS011;8283;48.504;13.734;2023-12-20T03:30:34;4.47;;;3.47;;
16346;SDS011;8283;48.504;13.734;2023-12-20T03:32:53;4.32;;;3.38;;
16346;SDS011;8283;48.504;13.734;2023-12-20T03:35:13;6.40;;;3.53;;
16346;SDS011;8283;48.504;13.734;2023-12-20T03:37:33;4.50;;;3.03;;
16346;SDS011;8283;48.504;13.734;2023-12-20T03:39:52;4.78;;;3.50;;
16346;SDS011;8283;48.504;13.734;2023-12-20T03:42:11;6.07;;;3.70;;
16346;SDS011;8283;48.504;13.734;2023-12-20T03:44:31;5.75;;;3.50;;
16346;SDS011;8283;48.504;13.734;2023-12-20T03:46:51;5.47;;;4.10;;
16346;SDS011;8283;48.504;13.734;2023-12-20T03:49:10;5.10;;;3.95;;
16346;SDS011;8283;48.504;13.734;2023-12-20T03:51:29;6.90;;;4.05;;
16346;SDS011;8283;48.504;13.734;2023-12-20T03:53:48;5.35;;;3.80;;
16346;SDS011;8283;48.504;13.734;2023-12-20T03:56:07;5.05;;;3.75;;
16346;SDS011;8283;48.504;13.734;2023-12-20T03:58:27;5.10;;;3.30;;
16346;SDS011;8283;48.504;13.734;2023-12-20T04:00:46;7.07;;;3.45;;
16346;SDS011;8283;48.504;13.734;2023-12-20T04:03:05;5.60;;;3.50;;
16346;SDS011;8283;48.504;13.734;2023-12-20T04:05:26;5.90;;;3.47;;
16346;SDS011;8283;48.504;13.734;2023-12-20T04:07:45;3.92;;;3.10;;
16346;SDS011;8283;48.504;13.734;2023-12-20T04:10:04;4.03;;;3.08;;
16346;SDS011;8283;48.504;13.734;2023-12-20T04:12:24;5.20;;;3.42;;
16346;SDS011;8283;48.504;13.734;2023-12-20T04:14:43;5.32;;;3.42;;
16346;SDS011;8283;48.504;13.734;2023-12-20T04:17:02;5.45;;;3.58;;
16346;SDS011;8283;48.504;13.734;2023-12-20T04:19:22;5.18;;;3.55;;
16346;SDS011;8283;48.504;13.734;2023-12-20T04:21:41;5.75;;;3.58;;
16346;SDS011;8283;48.504;13.734;2023-12-20T04:24:00;5.22;;;3.42;;
16346;SDS011;8283;48.504;13.734;2023-12-20T04:26:20;4.90;;;3.45;;
16346;SDS011;8283;48.504;13.734;2023-12-20T04:28:39;3.65;;;2.90;;
16346;SDS011;8283;48.504;13.734;2023-12-20T04:30:58;4.50;;;2.95;;
16346;SDS011;8283;48.504;13.734;2023-12-20T04:33:18;5.55;;;3.30;;
16346;SDS011;8283;48.504;13.734;2023-12-20T04:35:37;6.22;;;3.80;;
16346;SDS011;8283;48.504;13.734;2023-12-20T04:37:59;7.43;;;4.18;;
16346;SDS011;8283;48.504;13.734;2023-12-20T04:40:18;5.93;;;3.88;;
16346;SDS011;8283;48.504;13.734;2023-12-20T04:42:38;4.80;;;3.42;;
16346;SDS011;8283;48.504;13.734;2023-12-20T04:44:57;4.43;;;3.78;;
16346;SDS011;8283;48.504;13.734;2023-12-20T04:47:16;6.15;;;4.30;;
16346;SDS011;8283;48.504;13.734;2023-12-20T04:49:36;4.78;;;3.55;;
16346;SDS011;8283;48.504;13.734;2023-12-20T04:51:55;4.40;;;3.25;;
16346;SDS011;8283;48.504;13.734;2023-12-20T04:54:15;5.70;;;3.45;;
16346;SDS011;8283;48.504;13.734;2023-12-20T04:56:34;4.93;;;3.33;;
16346;SDS011;8283;48.504;13.734;2023-12-20T04:58:53;5.05;;;3.45;;
16346;SDS011;8283;48.504;13.734;2023-12-20T05:01:13;4.13;;;3.33;;
16346;SDS011;8283;48.504;13.734;2023-12-20T05:03:32;4.63;;;3.35;;
16346;SDS011;8283;48.504;13.734;2023-12-20T05:05:52;8.52;;;3.88;;
16346;SDS011;8283;48.504;13.734;2023-12-20T05:08:11;6.03;;;4.00;;
16346;SDS011;8283;48.504;13.734;2023-12-20T05:10:30;6.07;;;3.85;;
16346;SDS011;8283;48.504;13.734;2023-12-20T05:12:49;4.10;;;3.13;;
16346;SDS011;8283;48.504;13.734;2023-12-20T05:15:08;4.18;;;3.25;;
16346;SDS011;8283;48.504;13.734;2023-12-20T05:17:28;5.95;;;3.67;;
16346;SDS011;8283;48.504;13.734;2023-12-20T05:19:47;5.00;;;3.92;;
16346;SDS011;8283;48.504;13.734;2023-12-20T05:22:07;4.45;;;3.47;;
16346;SDS011;8283;48.504;13.734;2023-12-20T05:24:26;5.72;;;3.85;;
16346;SDS011;8283;48.504;13.734;2023-12-20T05:26:46;5.25;;;3.28;;
16346;SDS011;8283;48.504;13.734;2023-12-20T05:29:05;3.97;;;3.40;;
16346;SDS011;8283;48.504;13.734;2023-12-20T05:31:24;7.10;;;4.30;;
16346;SDS011;8283;48.504;13.734;2023-12-20T05:33:43;4.47;;;3.83;;
16346;SDS011;8283;48.504;13.734;2023-12-20T05:36:11;5.03;;;3.25;;
16346;SDS011;8283;48.504;13.734;2023-12-20T05:38:35;3.72;;;3.20;;
16346;SDS011;8283;48.504;13.734;2023-12-20T05:40:54;5.25;;;4.07;;
16346;SDS011;8283;48.504;13.734;2023-12-20T05:43:14;5.75;;;3.90;;
16346;SDS011;8283;48.504;13.734;2023-12-20T05:45:33;6.13;;;3.65;;
16346;SDS011;8283;48.504;13.734;2023-12-20T05:47:53;4.93;;;4.00;;
16346;SDS011;8283;48.504;13.734;2023-12-20T05:50:12;7.25;;;3.75;;
16346;SDS011;8283;48.504;13.734;2023-12-20T05:52:31;5.15;;;3.67;;
16346;SDS011;8283;48.504;13.734;2023-12-20T05:54:51;4.72;;;3.25;;
16346;SDS011;8283;48.504;13.734;2023-12-20T05:57:11;5.22;;;3.47;;
16346;SDS011;8283;48.504;13.734;2023-12-20T05:59:30;5.88;;;3.42;;
16346;SDS011;8283;48.504;13.734;2023-12-20T06:01:49;4.40;;;3.35;;
16346;SDS011;8283;48.504;13.734;2023-12-20T06:04:08;4.90;;;3.22;;
16346;SDS011;8283;48.504;13.734;2023-12-20T06:06:28;4.85;;;3.80;;
16346;SDS011;8283;48.504;13.734;2023-12-20T06:08:47;5.90;;;3.65;;
16346;SDS011;8283;48.504;13.734;2023-12-20T06:11:06;5.00;;;3.53;;
16346;SDS011;8283;48.504;13.734;2023-12-20T06:13:25;4.82;;;3.50;;
16346;SDS011;8283;48.504;13.734;2023-12-20T06:15:45;5.30;;;3.75;;
16346;SDS011;8283;48.504;13.734;2023-12-20T06:18:04;4.47;;;3.70;;
16346;SDS011;8283;48.504;13.734;2023-12-20T06:20:24;4.65;;;3.63;;
16346;SDS011;8283;48.504;13.734;2023-12-20T06:22:43;4.90;;;3.55;;
16346;SDS011;8283;48.504;13.734;2023-12-20T06:25:03;5.38;;;3.45;;
16346;SDS011;8283;48.504;13.734;2023-12-20T06:27:23;3.83;;;3.33;;
16346;SDS011;8283;48.504;13.734;2023-12-20T06:29:42;4.45;;;3.65;;
16346;SDS011;8283;48.504;13.734;2023-12-20T06:32:03;5.15;;;3.67;;
16346;SDS011;8283;48.504;13.734;2023-12-20T06:34:23;5.28;;;4.10;;
16346;SDS011;8283;48.504;13.734;2023-12-20T06:36:42;6.30;;;3.75;;
16346;SDS011;8283;48.504;13.734;2023-12-20T06:39:01;6.88;;;3.42;;
16346;SDS011;8283;48.504;13.734;2023-12-20T06:41:20;5.07;;;3.58;;
16346;SDS011;8283;48.504;13.734;2023-12-20T06:43:40;3.75;;;3.35;;
16346;SDS011;8283;48.504;13.734;2023-12-20T06:46:02;5.05;;;3.00;;
16346;SDS011;8283;48.504;13.734;2023-12-20T06:48:22;4.40;;;3.70;;
16346;SDS011;8283;48.504;13.734;2023-12-20T06:50:41;3.80;;;3.38;;
16346;SDS011;8283;48.504;13.734;2023-12-20T06:53:00;5.93;;;3.53;;
16346;SDS011;8283;48.504;13.734;2023-12-20T06:55:25;4.50;;;3.15;;
16346;SDS011;8283;48.504;13.734;2023-12-20T06:57:44;5.57;;;3.80;;
16346;SDS011;8283;48.504;13.734;2023-12-20T07:00:05;4.10;;;3.20;;
16346;SDS011;8283;48.504;13.734;2023-12-20T07:02:24;4.70;;;3.33;;
16346;SDS011;8283;48.504;13.734;2023-12-20T07:04:44;4.78;;;3.22;;
16346;SDS011;8283;48.504;13.734;2023-12-20T07:07:03;5.88;;;4.07;;
16346;SDS011;8283;48.504;13.734;2023-12-20T07:09:23;5.85;;;3.90;;
16346;SDS011;8283;48.504;13.734;2023-12-20T07:11:42;5.25;;;3.78;;
16346;SDS011;8283;48.504;13.734;2023-12-20T07:14:01;4.55;;;3.17;;
16346;SDS011;8283;48.504;13.734;2023-12-20T07:16:21;8.23;;;4.10;;
16346;SDS011;8283;48.504;13.734;2023-12-20T07:18:41;6.23;;;4.10;;
16346;SDS011;8283;48.504;13.734;2023-12-20T07:21:01;4.50;;;3.60;;
16346;SDS011;8283;48.504;13.734;2023-12-20T07:23:20;5.45;;;3.47;;
16346;SDS011;8283;48.504;13.734;2023-12-20T07:25:40;4.60;;;3.72;;
16346;SDS011;8283;48.504;13.734;2023-12-20T07:27:59;5.55;;;3.97;;
16346;SDS011;8283;48.504;13.734;2023-12-20T07:30:19;5.00;;;3.67;;
16346;SDS011;8283;48.504;13.734;2023-12-20T07:32:38;5.72;;;3.97;;
16346;SDS011;8283;48.504;13.734;2023-12-20T07:34:57;5.18;;;3.95;;
16346;SDS011;8283;48.504;13.734;2023-12-20T07:37:17;5.13;;;4.03;;
16346;SDS011;8283;48.504;13.734;2023-12-20T07:39:36;5.40;;;3.90;;
16346;SDS011;8283;48.504;13.734;2023-12-20T07:41:56;4.57;;;3.67;;
16346;SDS011;8283;48.504;13.734;2023-12-20T07:44:15;4.40;;;3.55;;
16346;SDS011;8283;48.504;13.734;2023-12-20T07:46:34;5.65;;;3.47;;
16346;SDS011;8283;48.504;13.734;2023-12-20T07:48:54;4.38;;;3.85;;
16346;SDS011;8283;48.504;13.734;2023-12-20T07:51:13;4.43;;;3.50;;
16346;SDS011;8283;48.504;13.734;2023-12-20T07:53:33;5.30;;;4.22;;
16346;SDS011;8283;48.504;13.734;2023-12-20T07:55:52;5.95;;;3.53;;
16346;SDS011;8283;48.504;13.734;2023-12-20T07:58:11;4.85;;;3.55;;
16346;SDS011;8283;48.504;13.734;2023-12-20T08:00:31;5.90;;;3.70;;
16346;SDS011;8283;48.504;13.734;2023-12-20T08:02:50;5.18;;;3.72;;
16346;SDS011;8283;48.504;13.734;2023-12-20T08:05:09;13.43;;;9.13;;
16346;SDS011;8283;48.504;13.734;2023-12-20T08:07:29;11.07;;;7.57;;
16346;SDS011;8283;48.504;13.734;2023-12-20T08:09:48;8.48;;;6.15;;
16346;SDS011;8283;48.504;13.734;2023-12-20T08:12:08;5.72;;;4.03;;
16346;SDS011;8283;48.504;13.734;2023-12-20T08:14:28;7.15;;;4.40;;
16346;SDS011;8283;48.504;13.734;2023-12-20T08:16:47;8.13;;;5.90;;
16346;SDS011;8283;48.504;13.734;2023-12-20T08:19:06;5.38;;;3.92;;
16346;SDS011;8283;48.504;13.734;2023-12-20T08:21:26;4.72;;;3.65;;
16346;SDS011;8283;48.504;13.734;2023-12-20T08:23:46;4.85;;;3.42;;
16346;SDS011;8283;48.504;13.734;2023-12-20T08:26:07;5.10;;;3.80;;
16346;SDS011;8283;48.504;13.734;2023-12-20T08:28:27;5.00;;;3.50;;
16346;SDS011;8283;48.504;13.734;2023-12-20T08:30:46;5.53;;;3.95;;
16346;SDS011;8283;48.504;13.734;2023-12-20T08:33:05;5.05;;;3.75;;
16346;SDS011;8283;48.504;13.734;2023-12-20T08:35:30;5.18;;;3.83;;
16346;SDS011;8283;48.504;13.734;2023-12-20T08:37:49;6.28;;;4.22;;
16346;SDS011;8283;48.504;13.734;2023-12-20T08:40:08;6.60;;;4.32;;
16346;SDS011;8283;48.504;13.734;2023-12-20T08:42:28;3.58;;;3.20;;
16346;SDS011;8283;48.504;13.734;2023-12-20T08:44:50;4.68;;;3.58;;
16346;SDS011;8283;48.504;13.734;2023-12-20T08:47:09;5.03;;;3.40;;
16346;SDS011;8283;48.504;13.734;2023-12-20T08:49:32;4.97;;;3.25;;
16346;SDS011;8283;48.504;13.734;2023-12-20T08:51:51;3.83;;;3.00;;
16346;SDS011;8283;48.504;13.734;2023-12-20T08:54:11;4.22;;;3.15;;
16346;SDS011;8283;48.504;13.734;2023-12-20T08:56:31;5.50;;;3.90;;
16346;SDS011;8283;48.504;13.734;2023-12-20T08:58:51;6.78;;;5.13;;
16346;SDS011;8283;48.504;13.734;2023-12-20T09:01:10;4.47;;;3.10;;
16346;SDS011;8283;48.504;13.734;2023-12-20T09:03:29;5.72;;;3.58;;
16346;SDS011;8283;48.504;13.734;2023-12-20T09:05:48;4.50;;;3.00;;
16346;SDS011;8283;48.504;13.734;2023-12-20T09:08:08;4.18;;;3.45;;
16346;SDS011;8283;48.504;13.734;2023-12-20T09:10:29;3.35;;;2.90;;
16346;SDS011;8283;48.504;13.734;2023-12-20T09:12:49;6.60;;;4.40;;
16346;SDS011;8283;48.504;13.734;2023-12-20T09:15:09;5.85;;;3.17;;
16346;SDS011;8283;48.504;13.734;2023-12-20T09:17:29;3.10;;;2.80;;
16346;SDS011;8283;48.504;13.734;2023-12-20T09:19:48;5.10;;;2.88;;
16346;SDS011;8283;48.504;13.734;2023-12-20T09:22:08;3.20;;;2.72;;
16346;SDS011;8283;48.504;13.734;2023-12-20T09:24:28;3.50;;;2.75;;
16346;SDS011;8283;48.504;13.734;2023-12-20T09:26:47;3.90;;;2.97;;
16346;SDS011;8283;48.504;13.734;2023-12-20T09:29:06;4.28;;;3.42;;
16346;SDS011;8283;48.504;13.734;2023-12-20T09:31:26;4.57;;;2.72;;
16346;SDS011;8283;48.504;13.734;2023-12-20T09:33:45;3.45;;;2.55;;
16346;SDS011;8283;48.504;13.734;2023-12-20T09:36:05;3.42;;;2.65;;
16346;SDS011;8283;48.504;13.734;2023-12-20T09:38:24;3.95;;;2.63;;
16346;SDS011;8283;48.504;13.734;2023-12-20T09:40:44;6.38;;;4.07;;
16346;SDS011;8283;48.504;13.734;2023-12-20T09:43:03;3.58;;;3.25;;
16346;SDS011;8283;48.504;13.734;2023-12-20T09:45:27;3.30;;;2.67;;
16346;SDS011;8283;48.504;13.734;2023-12-20T09:47:49;3.75;;;3.17;;
16346;SDS011;8283;48.504;13.734;2023-12-20T09:50:10;3.22;;;2.90;;
16346;SDS011;8283;48.504;13.734;2023-12-20T09:52:31;4.35;;;3.25;;
16346;SDS011;8283;48.504;13.734;2023-12-20T09:54:53;4.40;;;3.20;;
16346;SDS011;8283;48.504;13.734;2023-12-20T09:57:14;3.33;;;2.47;;
16346;SDS011;8283;48.504;13.734;2023-12-20T09:59:34;3.97;;;2.67;;
16346;SDS011;8283;48.504;13.734;2023-12-20T10:01:54;4.00;;;3.20;;
16346;SDS011;8283;48.504;13.734;2023-12-20T10:04:15;4.65;;;2.85;;
16346;SDS011;8283;48.504;13.734;2023-12-20T10:06:36;3.90;;;2.75;;
16346;SDS011;8283;48.504;13.734;2023-12-20T10:08:55;3.17;;;2.65;;
16346;SDS011;8283;48.504;13.734;2023-12-20T10:11:14;3.63;;;2.53;;
16346;SDS011;8283;48.504;13.734;2023-12-20T10:13:34;2.90;;;2.60;;
16346;SDS011;8283;48.504;13.734;2023-12-20T10:15:59;2.53;;;2.25;;
16346;SDS011;8283;48.504;13.734;2023-12-20T10:18:19;2.72;;;2.08;;
16346;SDS011;8283;48.504;13.734;2023-12-20T10:20:40;3.10;;;2.40;;
16346;SDS011;8283;48.504;13.734;2023-12-20T10:23:02;2.20;;;2.00;;
16346;SDS011;8283;48.504;13.734;2023-12-20T10:25:21;3.60;;;2.50;;
16346;SDS011;8283;48.504;13.734;2023-12-20T10:27:41;3.00;;;1.85;;
16346;SDS011;8283;48.504;13.734;2023-12-20T10:30:00;2.55;;;2.00;;
16346;SDS011;8283;48.504;13.734;2023-12-20T10:32:23;4.22;;;2.03;;
16346;SDS011;8283;48.504;13.734;2023-12-20T10:34:44;2.83;;;2.05;;
16346;SDS011;8283;48.504;13.734;2023-12-20T10:37:04;1.88;;;1.60;;
16346;SDS011;8283;48.504;13.734;2023-12-20T10:39:23;1.92;;;1.70;;
16346;SDS011;8283;48.504;13.734;2023-12-20T10:41:43;3.47;;;1.67;;
16346;SDS011;8283;48.504;13.734;2023-12-20T10:44:04;2.08;;;1.50;;
16346;SDS011;8283;48.504;13.734;2023-12-20T10:46:23;2.22;;;1.48;;
16346;SDS011;8283;48.504;13.734;2023-12-20T10:51:04;2.22;;;1.50;;
16346;SDS011;8283;48.504;13.734;2023-12-20T10:53:24;2.03;;;1.65;;
16346;SDS011;8283;48.504;13.734;2023-12-20T10:55:44;2.17;;;1.65;;
16346;SDS011;8283;48.504;13.734;2023-12-20T10:58:07;1.50;;;1.33;;
16346;SDS011;8283;48.504;13.734;2023-12-20T11:00:28;2.42;;;1.67;;
16346;SDS011;8283;48.504;13.734;2023-12-20T11:02:49;1.85;;;1.50;;
16346;SDS011;8283;48.504;13.734;2023-12-20T11:05:19;1.85;;;1.20;;
16346;SDS011;8283;48.504;13.734;2023-12-20T11:08:02;1.20;;;1.10;;
16346;SDS011;8283;48.504;13.734;2023-12-20T11:10:55;1.42;;;1.10;;
16346;SDS011;8283;48.504;13.734;2023-12-20T11:13:22;2.10;;;0.90;;
16346;SDS011;8283;48.504;13.734;2023-12-20T11:15:45;1.42;;;1.20;;
16346;SDS011;8283;48.504;13.734;2023-12-20T11:18:05;2.42;;;1.65;;
16346;SDS011;8283;48.504;13.734;2023-12-20T11:20:35;2.72;;;2.05;;
16346;SDS011;8283;48.504;13.734;2023-12-20T11:22:56;1.83;;;1.23;;
16346;SDS011;8283;48.504;13.734;2023-12-20T11:25:17;1.15;;;0.82;;
16346;SDS011;8283;48.504;13.734;2023-12-20T11:27:37;1.23;;;1.13;;
16346;SDS011;8283;48.504;13.734;2023-12-20T11:30:00;2.80;;;1.10;;
16346;SDS011;8283;48.504;13.734;2023-12-20T11:34:44;1.20;;;1.00;;
16346;SDS011;8283;48.504;13.734;2023-12-20T11:37:03;4.47;;;1.80;;
16346;SDS011;8283;48.504;13.734;2023-12-20T11:39:23;2.33;;;1.38;;
16346;SDS011;8283;48.504;13.734;2023-12-20T11:41:45;1.00;;;0.80;;
16346;SDS011;8283;48.504;13.734;2023-12-20T11:44:04;1.35;;;0.82;;
16346;SDS011;8283;48.504;13.734;2023-12-20T11:46:24;1.00;;;0.70;;
16346;SDS011;8283;48.504;13.734;2023-12-20T11:48:44;1.08;;;0.68;;
16346;SDS011;8283;48.504;13.734;2023-12-20T11:51:13;0.68;;;0.68;;
16346;SDS011;8283;48.504;13.734;2023-12-20T11:53:32;0.55;;;0.47;;
16346;SDS011;8283;48.504;13.734;2023-12-20T11:55:53;0.77;;;0.55;;
16346;SDS011;8283;48.504;13.734;2023-12-20T11:58:13;0.63;;;0.45;;
16346;SDS011;8283;48.504;13.734;2023-12-20T12:00:33;0.40;;;0.40;;
16346;SDS011;8283;48.504;13.734;2023-12-20T12:02:56;0.65;;;0.60;;
16346;SDS011;8283;48.504;13.734;2023-12-20T12:05:16;0.50;;;0.50;;
16346;SDS011;8283;48.504;13.734;2023-12-20T12:07:36;0.60;;;0.60;;
16346;SDS011;8283;48.504;13.734;2023-12-20T12:09:55;0.50;;;0.50;;
16346;SDS011;8283;48.504;13.734;2023-12-20T12:12:15;0.63;;;0.60;;
16346;SDS011;8283;48.504;13.734;2023-12-20T12:14:34;0.50;;;0.50;;
16346;SDS011;8283;48.504;13.734;2023-12-20T12:16:55;1.92;;;1.02;;
16346;SDS011;8283;48.504;13.734;2023-12-20T12:19:24;0.70;;;0.70;;
16346;SDS011;8283;48.504;13.734;2023-12-20T12:21:45;1.00;;;0.70;;
16346;SDS011;8283;48.504;13.734;2023-12-20T12:24:07;1.02;;;0.80;;
16346;SDS011;8283;48.504;13.734;2023-12-20T12:26:29;0.60;;;0.50;;
16346;SDS011;8283;48.504;13.734;2023-12-20T12:28:49;0.70;;;0.70;;
16346;SDS011;8283;48.504;13.734;2023-12-20T12:31:13;0.95;;;0.80;;
16346;SDS011;8283;48.504;13.734;2023-12-20T12:33:35;0.60;;;0.60;;
16346;SDS011;8283;48.504;13.734;2023-12-20T12:35:55;1.00;;;0.70;;
16346;SDS011;8283;48.504;13.734;2023-12-20T12:38:15;0.73;;;0.73;;
16346;SDS011;8283;48.504;13.734;2023-12-20T12:40:34;1.13;;;0.80;;
16346;SDS011;8283;48.504;13.734;2023-12-20T12:42:54;0.82;;;0.77;;
16346;SDS011;8283;48.504;13.734;2023-12-20T12:45:14;1.45;;;0.90;;
16346;SDS011;8283;48.504;13.734;2023-12-20T12:47:34;0.73;;;0.60;;
16346;SDS011;8283;48.504;13.734;2023-12-20T12:49:54;1.00;;;0.90;;
16346;SDS011;8283;48.504;13.734;2023-12-20T12:52:13;2.10;;;0.90;;
16346;SDS011;8283;48.504;13.734;2023-12-20T12:54:32;1.02;;;0.93;;
16346;SDS011;8283;48.504;13.734;2023-12-20T12:56:52;1.10;;;0.90;;
16346;SDS011;8283;48.504;13.734;2023-12-20T12:59:12;1.70;;;0.80;;
16346;SDS011;8283;48.504;13.734;2023-12-20T13:01:31;0.75;;;0.75;;
16346;SDS011;8283;48.504;13.734;2023-12-20T13:03:50;1.10;;;0.98;;
16346;SDS011;8283;48.504;13.734;2023-12-20T13:06:09;1.00;;;0.82;;
16346;SDS011;8283;48.504;13.734;2023-12-20T13:08:29;1.52;;;1.02;;
16346;SDS011;8283;48.504;13.734;2023-12-20T13:10:49;0.75;;;0.50;;
16346;SDS011;8283;48.504;13.734;2023-12-20T13:13:08;0.85;;;0.60;;
16346;SDS011;8283;48.504;13.734;2023-12-20T13:15:28;1.60;;;0.70;;
16346;SDS011;8283;48.504;13.734;2023-12-20T13:17:47;0.82;;;0.80;;
16346;SDS011;8283;48.504;13.734;2023-12-20T13:20:06;0.50;;;0.50;;
16346;SDS011;8283;48.504;13.734;2023-12-20T13:22:26;0.60;;;0.60;;
16346;SDS011;8283;48.504;13.734;2023-12-20T13:24:47;0.60;;;0.57;;
16346;SDS011;8283;48.504;13.734;2023-12-20T13:27:07;0.60;;;0.60;;
16346;SDS011;8283;48.504;13.734;2023-12-20T13:29:26;0.70;;;0.60;;
16346;SDS011;8283;48.504;13.734;2023-12-20T13:31:45;0.50;;;0.50;;
16346;SDS011;8283;48.504;13.734;2023-12-20T13:34:05;2.88;;;0.80;;
16346;SDS011;8283;48.504;13.734;2023-12-20T13:36:25;0.75;;;0.75;;
16346;SDS011;8283;48.504;13.734;2023-12-20T13:38:44;0.90;;;0.80;;
16346;SDS011;8283;48.504;13.734;2023-12-20T13:41:04;0.60;;;0.60;;
16346;SDS011;8283;48.504;13.734;2023-12-20T13:43:24;0.93;;;0.82;;
16346;SDS011;8283;48.504;13.734;2023-12-20T13:45:44;0.80;;;0.70;;
16346;SDS011;8283;48.504;13.734;2023-12-20T13:48:03;1.42;;;0.80;;
16346;SDS011;8283;48.504;13.734;2023-12-20T13:50:23;2.87;;;1.03;;
16346;SDS011;8283;48.504;13.734;2023-12-20T13:52:43;1.50;;;0.80;;
16346;SDS011;8283;48.504;13.734;2023-12-20T13:55:03;1.70;;;1.00;;
16346;SDS011;8283;48.504;13.734;2023-12-20T13:57:24;1.10;;;0.77;;
16346;SDS011;8283;48.504;13.734;2023-12-20T13:59:43;1.58;;;1.10;;
16346;SDS011;8283;48.504;13.734;2023-12-20T14:02:03;1.90;;;1.52;;
16346;SDS011;8283;48.504;13.734;2023-12-20T14:04:23;1.67;;;1.27;;
16346;SDS011;8283;48.504;13.734;2023-12-20T14:06:42;1.33;;;1.23;;
16346;SDS011;8283;48.504;13.734;2023-12-20T14:09:01;2.20;;;1.60;;
16346;SDS011;8283;48.504;13.734;2023-12-20T14:11:22;1.15;;;0.88;;
16346;SDS011;8283;48.504;13.734;2023-12-20T14:13:41;1.30;;;1.13;;
16346;SDS011;8283;48.504;13.734;2023-12-20T14:16:02;1.27;;;0.77;;